createdAt,value
2023-05-25T00:01:02.688Z,98251.69
2023-05-25T00:03:31.956Z,98259.81
2023-05-25T00:06:01.648Z,98251.75
2023-05-25T00:08:29.332Z,98249.19
2023-05-25T00:10:56.186Z,98258.22
2023-05-25T00:13:22.891Z,98247.06
2023-05-25T00:15:49.577Z,98250.03
2023-05-25T00:18:16.276Z,98252.31
2023-05-25T00:20:44.871Z,98258.81
2023-05-25T00:23:11.764Z,98256.75
2023-05-25T00:25:38.652Z,98254.47
2023-05-25T00:28:05.283Z,98259.09
2023-05-25T00:30:32.020Z,98253.63
2023-05-25T00:32:59.895Z,98249.47
2023-05-25T00:35:26.645Z,98246.38
2023-05-25T00:37:53.282Z,98250.81
2023-05-25T00:40:19.954Z,98250.63
2023-05-25T00:42:47.367Z,98251.00
2023-05-25T00:45:14.114Z,98244.75
2023-05-25T00:47:41.616Z,98248.56
2023-05-25T00:50:10.168Z,98249.84
2023-05-25T00:52:36.985Z,98261.56
2023-05-25T00:55:03.962Z,98249.19
2023-05-25T00:57:34.315Z,98249.56
2023-05-25T01:00:04.981Z,98249.78
2023-05-25T01:02:33.606Z,98249.97
2023-05-25T01:05:02.712Z,98252.94
2023-05-25T01:07:31.166Z,98246.28
2023-05-25T01:10:01.642Z,98245.03
2023-05-25T01:12:35.697Z,98237.47
2023-05-25T01:15:04.201Z,98238.72
2023-05-25T01:17:30.932Z,98234.56
2023-05-25T01:20:09.763Z,98234.38
2023-05-25T01:22:57.326Z,98233.75
2023-05-25T01:25:33.445Z,98233.38
2023-05-25T01:28:17.731Z,98223.22
2023-05-25T01:30:48.902Z,98224.88
2023-05-25T01:33:18.364Z,98234.31
2023-05-25T01:35:47.196Z,98239.34
2023-05-25T01:38:14.482Z,98239.34
2023-05-25T01:40:41.362Z,98242.69
2023-05-25T01:43:08.011Z,98235.41
2023-05-25T01:45:35.534Z,98227.25
2023-05-25T01:48:27.204Z,98232.69
2023-05-25T01:51:01.929Z,98213.91
2023-05-25T01:53:31.466Z,98224.00
2023-05-25T01:56:08.672Z,98223.59
2023-05-25T01:58:42.039Z,98226.06
2023-05-25T02:01:10.207Z,98225.47
2023-05-25T02:03:38.476Z,98225.25
2023-05-25T02:06:05.554Z,98230.88
2023-05-25T02:08:32.159Z,98240.31
2023-05-25T02:10:58.748Z,98244.09
2023-05-25T02:13:25.663Z,98245.78
2023-05-25T02:15:53.218Z,98237.22
2023-05-25T02:18:19.959Z,98251.84
2023-05-25T02:20:47.611Z,98252.91
2023-05-25T02:23:14.346Z,98254.34
2023-05-25T02:25:42.763Z,98252.09
2023-05-25T02:28:09.696Z,98251.25
2023-05-25T02:30:36.389Z,98248.72
2023-05-25T02:33:03.093Z,98255.44
2023-05-25T02:35:29.783Z,98249.78
2023-05-25T02:37:56.731Z,98252.50
2023-05-25T02:40:24.762Z,98253.34
2023-05-25T02:42:51.409Z,98254.22
2023-05-25T02:45:18.205Z,98253.38
2023-05-25T02:47:44.942Z,98252.34
2023-05-25T02:50:11.741Z,98256.72
2023-05-25T02:52:38.420Z,98263.19
2023-05-25T02:55:06.080Z,98266.34
2023-05-25T02:57:32.746Z,98261.31
2023-05-25T02:59:59.419Z,98261.94
2023-05-25T03:02:26.128Z,98265.47
2023-05-25T03:04:54.042Z,98260.03
2023-05-25T03:07:21.438Z,98256.72
2023-05-25T03:09:48.098Z,98260.69
2023-05-25T03:12:14.893Z,98262.75
2023-05-25T03:14:41.533Z,98263.41
2023-05-25T03:17:08.218Z,98260.25
2023-05-25T03:19:34.909Z,98260.25
2023-05-25T03:22:03.452Z,98251.50
2023-05-25T03:24:30.202Z,98260.84
2023-05-25T03:26:56.858Z,98276.91
2023-05-25T03:29:23.448Z,98282.75
2023-05-25T03:31:50.092Z,98276.66
2023-05-25T03:34:16.720Z,98279.72
2023-05-25T03:36:45.942Z,98281.59
2023-05-25T03:39:13.276Z,98276.16
2023-05-25T03:41:39.902Z,98277.84
2023-05-25T03:44:06.588Z,98275.13
2023-05-25T03:46:33.267Z,98277.84
2023-05-25T03:48:59.997Z,98275.91
2023-05-25T03:51:28.017Z,98269.44
2023-05-25T03:53:54.720Z,98290.34
2023-05-25T03:56:21.473Z,98290.31
2023-05-25T03:58:48.059Z,98287.72
2023-05-25T04:01:14.766Z,98287.38
2023-05-25T04:03:41.553Z,98296.09
2023-05-25T04:06:08.854Z,98304.81
2023-05-25T04:08:35.558Z,98310.03
2023-05-25T04:11:02.252Z,98310.88
2023-05-25T04:13:28.877Z,98304.84
2023-05-25T04:15:55.912Z,98306.91
2023-05-25T04:18:22.609Z,98309.41
2023-05-25T04:20:49.436Z,98314.56
2023-05-25T04:23:16.958Z,98318.50
2023-05-25T04:25:45.441Z,98311.50
2023-05-25T04:28:12.429Z,98305.56
2023-05-25T04:30:39.771Z,98310.97
2023-05-25T04:33:06.451Z,98306.94
2023-05-25T04:35:33.186Z,98305.88
2023-05-25T04:38:03.041Z,98313.94
2023-05-25T04:40:30.146Z,98310.06
2023-05-25T04:42:57.136Z,98320.78
2023-05-25T04:45:24.012Z,98330.13
2023-05-25T04:47:51.141Z,98309.06
2023-05-25T04:50:17.968Z,98327.81
2023-05-25T04:52:44.648Z,98322.13
2023-05-25T04:55:11.329Z,98325.13
2023-05-25T04:57:37.970Z,98326.81
2023-05-25T05:00:06.268Z,98324.84
2023-05-25T05:02:32.965Z,98330.97
2023-05-25T05:04:59.643Z,98334.31
2023-05-25T05:07:26.318Z,98328.91
2023-05-25T05:09:52.939Z,98341.00
2023-05-25T05:12:19.682Z,98340.44
2023-05-25T05:14:46.417Z,98339.06
2023-05-25T05:17:13.144Z,98337.06
2023-05-25T05:19:39.850Z,98336.50
2023-05-25T05:22:08.660Z,98337.69
2023-05-25T05:24:35.658Z,98345.56
2023-05-25T05:27:04.682Z,98336.59
2023-05-25T05:29:31.896Z,98348.88
2023-05-25T05:31:58.827Z,98357.06
2023-05-25T05:34:25.756Z,98360.00
2023-05-25T05:36:57.161Z,98359.88
2023-05-25T05:39:24.415Z,98356.47
2023-05-25T05:41:51.400Z,98367.84
2023-05-25T05:44:18.627Z,98367.50
2023-05-25T05:46:46.324Z,98364.13
2023-05-25T05:49:12.959Z,98372.09
2023-05-25T05:51:39.608Z,98378.69
2023-05-25T05:54:06.642Z,98381.81
2023-05-25T05:56:33.279Z,98388.88
2023-05-25T05:58:59.891Z,98392.38
2023-05-25T06:01:26.516Z,98392.28
2023-05-25T06:03:54.912Z,98392.03
2023-05-25T06:06:21.855Z,98391.63
2023-05-25T06:08:48.492Z,98394.78
2023-05-25T06:11:15.259Z,98388.28
2023-05-25T06:13:41.911Z,98390.69
2023-05-25T06:16:08.651Z,98396.44
2023-05-25T06:18:35.316Z,98399.34
2023-05-25T06:21:02.411Z,98401.75
2023-05-25T06:23:29.036Z,98403.16
2023-05-25T06:25:56.860Z,98403.34
2023-05-25T06:28:23.522Z,98400.25
2023-05-25T06:30:50.447Z,98401.84
2023-05-25T06:33:17.183Z,98401.03
2023-05-25T06:35:44.054Z,98407.78
2023-05-25T06:38:12.241Z,98413.13
2023-05-25T06:40:38.860Z,98415.78
2023-05-25T06:43:05.556Z,98420.94
2023-05-25T06:45:32.214Z,98423.22
2023-05-25T06:47:59.010Z,98420.28
2023-05-25T06:50:25.944Z,98417.59
2023-05-25T06:52:52.615Z,98418.22
2023-05-25T06:55:19.195Z,98414.31
2023-05-25T06:57:46.221Z,98416.16
2023-05-25T07:00:13.698Z,98410.00
2023-05-25T07:02:40.373Z,98424.31
2023-05-25T07:05:07.298Z,98419.94
2023-05-25T07:07:34.024Z,98423.28
2023-05-25T07:10:03.053Z,98422.22
2023-05-25T07:12:29.730Z,98426.06
2023-05-25T07:14:57.851Z,98429.13
2023-05-25T07:17:24.863Z,98429.31
2023-05-25T07:19:51.701Z,98423.78
2023-05-25T07:22:19.668Z,98441.47
2023-05-25T07:24:46.918Z,98429.28
2023-05-25T07:27:14.301Z,98431.06
2023-05-25T07:29:41.276Z,98435.09
2023-05-25T07:32:08.291Z,98440.06
2023-05-25T07:34:35.438Z,98429.44
2023-05-25T07:37:02.260Z,98426.50
2023-05-25T07:39:29.027Z,98429.28
2023-05-25T07:41:55.640Z,98431.34
2023-05-25T07:44:22.270Z,98431.13
2023-05-25T07:46:48.953Z,98427.59
2023-05-25T07:49:18.370Z,98441.19
2023-05-25T07:51:45.968Z,98440.06
2023-05-25T07:54:12.778Z,98431.28
2023-05-25T07:56:39.786Z,98426.28
2023-05-25T07:59:06.707Z,98427.13
2023-05-25T08:01:33.373Z,98438.44
2023-05-25T08:04:00.244Z,98427.94
2023-05-25T08:06:27.092Z,98434.59
2023-05-25T08:08:53.885Z,98429.31
2023-05-25T08:11:25.133Z,98427.38
2023-05-25T08:13:51.902Z,98432.38
2023-05-25T08:16:19.125Z,98430.97
2023-05-25T08:18:46.951Z,98422.41
2023-05-25T08:21:14.263Z,98429.25
2023-05-25T08:23:42.833Z,98427.94
2023-05-25T08:26:31.263Z,98421.84
2023-05-25T08:28:59.363Z,98420.22
2023-05-25T08:31:26.057Z,98426.56
2023-05-25T08:33:52.691Z,98429.81
2023-05-25T08:36:19.448Z,98429.56
2023-05-25T08:38:46.039Z,98420.38
2023-05-25T08:41:13.518Z,98423.41
2023-05-25T08:43:41.978Z,98420.31
2023-05-25T08:46:09.598Z,98417.63
2023-05-25T08:48:42.214Z,98405.81
2023-05-25T08:51:12.103Z,98414.91
2023-05-25T08:53:40.893Z,98414.34
2023-05-25T08:56:18.336Z,98401.41
2023-05-25T08:58:57.972Z,98401.66
2023-05-25T09:01:28.821Z,98398.53
2023-05-25T09:03:57.672Z,98405.91
2023-05-25T09:06:27.020Z,98398.94
2023-05-25T09:08:54.599Z,98400.06
2023-05-25T09:11:35.907Z,98390.72
2023-05-25T09:14:04.721Z,98394.34
2023-05-25T09:16:33.403Z,98410.91
2023-05-25T09:19:00.208Z,98407.34
2023-05-25T09:21:27.159Z,98403.13
2023-05-25T09:23:54.120Z,98384.22
2023-05-25T09:26:21.244Z,98389.34
2023-05-25T09:28:48.172Z,98376.03
2023-05-25T09:31:17.698Z,98381.97
2023-05-25T09:33:46.146Z,98387.72
2023-05-25T09:36:15.328Z,98371.88
2023-05-25T09:38:42.379Z,98375.63
2023-05-25T09:41:09.437Z,98362.63
2023-05-25T09:43:43.275Z,98387.53
2023-05-25T09:46:14.147Z,98385.69
2023-05-25T09:48:42.011Z,98389.38
2023-05-25T09:51:09.070Z,98390.16
2023-05-25T09:53:35.809Z,98392.13
2023-05-25T09:56:04.194Z,98385.84
2023-05-25T09:58:31.239Z,98385.16
2023-05-25T10:00:58.414Z,98381.03
2023-05-25T10:03:25.729Z,98379.13
2023-05-25T10:05:54.805Z,98378.94
2023-05-25T10:08:23.484Z,98378.38
2023-05-25T10:10:50.811Z,98385.94
2023-05-25T10:13:22.972Z,98383.19
2023-05-25T10:15:53.568Z,98374.31
2023-05-25T10:18:26.311Z,98375.97
2023-05-25T10:21:00.755Z,98367.91
2023-05-25T10:23:50.214Z,98362.88
2023-05-25T10:26:24.313Z,98356.00
2023-05-25T10:28:52.436Z,98356.34
2023-05-25T10:31:19.788Z,98361.19
2023-05-25T10:33:50.562Z,98358.69
2023-05-25T10:36:20.814Z,98359.69
2023-05-25T10:38:50.955Z,98355.00
2023-05-25T10:41:19.576Z,98351.84
2023-05-25T10:43:47.086Z,98359.53
2023-05-25T10:46:15.320Z,98346.69
2023-05-25T10:48:50.190Z,98359.94
2023-05-25T10:51:19.743Z,98347.50
2023-05-25T10:53:58.558Z,98354.13
2023-05-25T10:56:25.233Z,98355.75
2023-05-25T10:58:53.097Z,98341.22
2023-05-25T11:01:19.905Z,98338.75
2023-05-25T11:04:16.031Z,98336.56
2023-05-25T11:06:45.823Z,98327.63
2023-05-25T11:09:26.947Z,98329.53
2023-05-25T11:11:55.630Z,98339.06
2023-05-25T11:14:24.061Z,98347.66
2023-05-25T11:17:14.802Z,98344.97
2023-05-25T11:19:52.011Z,98359.06
2023-05-25T11:22:22.934Z,98362.25
2023-05-25T11:24:51.288Z,98357.28
2023-05-25T11:27:29.423Z,98344.25
2023-05-25T11:29:57.893Z,98344.94
2023-05-25T11:32:29.277Z,98347.19
2023-05-25T11:34:58.556Z,98343.84
2023-05-25T11:37:29.055Z,98336.75
2023-05-25T11:39:56.051Z,98333.66
2023-05-25T11:42:24.608Z,98326.34
2023-05-25T11:44:52.057Z,98325.69
2023-05-25T11:47:25.122Z,98317.19
2023-05-25T11:49:52.342Z,98308.50
2023-05-25T11:52:20.864Z,98342.34
2023-05-25T11:54:47.761Z,98358.31
2023-05-25T11:57:16.950Z,98372.47
2023-05-25T11:59:52.796Z,98383.97
2023-05-25T12:02:20.627Z,98393.72
2023-05-25T12:05:02.060Z,98404.72
2023-05-25T12:07:30.748Z,98403.16
2023-05-25T12:10:11.169Z,98411.66
2023-05-25T12:12:44.827Z,98380.31
2023-05-25T12:15:19.007Z,98382.91
2023-05-25T12:17:47.479Z,98378.16
2023-05-25T12:20:16.944Z,98380.78
2023-05-25T12:22:44.826Z,98374.94
2023-05-25T12:25:12.667Z,98374.59
2023-05-25T12:27:42.726Z,98394.84
2023-05-25T12:30:12.954Z,98395.91
2023-05-25T12:33:01.713Z,98395.22
2023-05-25T12:35:29.880Z,98401.53
2023-05-25T12:38:12.861Z,98393.69
2023-05-25T12:40:39.527Z,98401.41
2023-05-25T12:43:06.382Z,98392.09
2023-05-25T12:45:33.085Z,98400.78
2023-05-25T12:48:00.250Z,98387.31
2023-05-25T12:50:29.514Z,98381.09
2023-05-25T12:53:02.468Z,98372.81
2023-05-25T12:55:33.017Z,98362.84
2023-05-25T12:58:07.161Z,98344.06
2023-05-25T13:00:41.464Z,98343.81
2023-05-25T13:03:08.439Z,98339.88
2023-05-25T13:05:37.157Z,98329.16
2023-05-25T13:08:05.170Z,98333.75
2023-05-25T13:10:33.226Z,98336.34
2023-05-25T13:13:00.801Z,98334.63
2023-05-25T13:15:28.198Z,98342.22
2023-05-25T13:17:56.446Z,98324.59
2023-05-25T13:20:27.784Z,98340.31
2023-05-25T13:22:56.001Z,98344.00
2023-05-25T13:25:23.112Z,98351.03
2023-05-25T13:27:51.851Z,98361.91
2023-05-25T13:30:20.894Z,98361.47
2023-05-25T13:32:50.298Z,98358.28
2023-05-25T13:35:36.681Z,98352.84
2023-05-25T13:38:03.991Z,98347.53
2023-05-25T13:40:30.654Z,98347.69
2023-05-25T13:42:57.316Z,98344.22
2023-05-25T13:45:23.965Z,98342.22
2023-05-25T13:47:50.735Z,98343.78
2023-05-25T13:50:17.527Z,98339.50
2023-05-25T13:52:44.195Z,98335.13
2023-05-25T13:55:11.428Z,98334.06
2023-05-25T13:57:38.128Z,98336.19
2023-05-25T14:00:13.527Z,98339.53
2023-05-25T14:02:40.671Z,98352.63
2023-05-25T14:07:52.722Z,98365.00
2023-05-25T14:10:20.368Z,98363.09
2023-05-25T14:12:46.999Z,98370.59
2023-05-25T14:15:13.732Z,98369.25
2023-05-25T14:17:40.391Z,98360.31
2023-05-25T14:20:07.772Z,98380.44
2023-05-25T14:22:34.425Z,98367.56
2023-05-25T14:25:01.182Z,98368.22
2023-05-25T14:27:27.773Z,98374.66
2023-05-25T14:29:54.390Z,98351.88
2023-05-25T14:32:21.106Z,98352.63
2023-05-25T14:34:47.799Z,98355.38
2023-05-25T14:37:14.478Z,98342.66
2023-05-25T14:39:41.074Z,98341.50
2023-05-25T14:42:07.805Z,98328.09
2023-05-25T14:44:34.443Z,98338.66
2023-05-25T14:47:01.181Z,98333.81
2023-05-25T14:49:27.836Z,98333.66
2023-05-25T14:51:54.729Z,98322.91
2023-05-25T14:54:21.464Z,98330.56
2023-05-25T14:56:48.180Z,98326.66
2023-05-25T14:59:14.834Z,98324.09
2023-05-25T15:01:41.500Z,98321.38
2023-05-25T15:04:08.771Z,98329.50
2023-05-25T15:06:36.860Z,98328.69
2023-05-25T15:09:03.563Z,98329.84
2023-05-25T15:11:30.156Z,98325.13
2023-05-25T15:13:58.696Z,98324.00
2023-05-25T15:16:25.533Z,98322.22
2023-05-25T15:18:52.214Z,98323.63
2023-05-25T15:21:18.888Z,98313.47
2023-05-25T15:23:45.667Z,98312.19
2023-05-25T15:26:12.884Z,98316.78
2023-05-25T15:28:39.475Z,98304.53
2023-05-25T15:31:06.054Z,98316.44
2023-05-25T15:33:48.612Z,98320.84
2023-05-25T15:36:18.879Z,98317.53
2023-05-25T15:38:49.085Z,98316.72
2023-05-25T15:41:16.935Z,98315.03
2023-05-25T15:43:52.653Z,98328.00
2023-05-25T15:46:19.528Z,98331.69
2023-05-25T15:48:46.169Z,98326.00
2023-05-25T15:51:12.834Z,98319.44
2023-05-25T15:53:39.761Z,98328.50
2023-05-25T15:56:06.539Z,98321.41
2023-05-25T15:58:34.520Z,98322.19
2023-05-25T16:01:01.732Z,98302.63
2023-05-25T16:03:29.347Z,98324.50
2023-05-25T16:05:56.671Z,98326.28
2023-05-25T16:08:23.846Z,98316.31
2023-05-25T16:10:50.655Z,98317.88
2023-05-25T16:13:17.258Z,98324.66
2023-05-25T16:15:44.014Z,98316.81
2023-05-25T16:18:11.120Z,98311.69
2023-05-25T16:20:37.817Z,98303.75
2023-05-25T16:23:04.586Z,98305.03
2023-05-25T16:25:31.172Z,98303.13
2023-05-25T16:27:57.799Z,98297.91
2023-05-25T16:30:24.388Z,98299.00
2023-05-25T16:32:51.005Z,98299.00
2023-05-25T16:35:17.786Z,98290.81
2023-05-25T16:37:44.909Z,98303.28
2023-05-25T16:40:11.712Z,98296.84
2023-05-25T16:42:38.352Z,98296.63
2023-05-25T16:45:05.469Z,98289.00
2023-05-25T16:47:32.193Z,98289.34
2023-05-25T16:49:58.826Z,98284.72
2023-05-25T16:52:25.777Z,98278.19
2023-05-25T16:54:52.376Z,98288.06
2023-05-25T16:57:19.156Z,98295.44
2023-05-25T16:59:46.111Z,98296.16
2023-05-25T17:02:12.755Z,98300.16
2023-05-25T17:04:39.378Z,98299.38
2023-05-25T17:07:06.357Z,98293.38
2023-05-25T17:09:33.116Z,98297.31
2023-05-25T17:12:01.733Z,98293.59
2023-05-25T17:14:28.419Z,98292.19
2023-05-25T17:16:55.238Z,98283.72
2023-05-25T17:19:21.976Z,98287.31
2023-05-25T17:21:48.610Z,98276.00
2023-05-25T17:24:15.410Z,98293.47
2023-05-25T17:26:42.050Z,98289.19
2023-05-25T17:29:08.647Z,98294.59
2023-05-25T17:31:35.575Z,98294.13
2023-05-25T17:34:02.326Z,98294.47
2023-05-25T17:36:28.944Z,98294.97
2023-05-25T17:38:55.652Z,98280.22
2023-05-25T17:41:22.844Z,98289.56
2023-05-25T17:43:49.539Z,98291.25
2023-05-25T17:46:16.652Z,98284.50
2023-05-25T17:48:43.337Z,98286.00
2023-05-25T17:51:10.083Z,98285.41
2023-05-25T17:53:37.521Z,98276.38
2023-05-25T17:56:04.412Z,98287.56
2023-05-25T17:58:31.009Z,98275.09
2023-05-25T18:00:57.890Z,98296.47
2023-05-25T18:03:25.937Z,98288.50
2023-05-25T18:05:52.754Z,98291.72
2023-05-25T18:08:19.361Z,98297.41
2023-05-25T18:10:46.144Z,98293.38
2023-05-25T18:13:13.210Z,98300.75
2023-05-25T18:15:39.821Z,98305.84
2023-05-25T18:18:08.386Z,98300.38
2023-05-25T18:20:35.097Z,98306.66
2023-05-25T18:23:03.314Z,98309.78
2023-05-25T18:25:30.003Z,98311.06
2023-05-25T18:27:56.600Z,98315.81
2023-05-25T18:30:23.213Z,98309.16
2023-05-25T18:32:49.855Z,98311.75
2023-05-25T18:35:16.581Z,98308.44
2023-05-25T18:37:43.270Z,98302.63
2023-05-25T18:40:12.879Z,98292.78
2023-05-25T18:42:40.034Z,98312.06
2023-05-25T18:45:07.062Z,98314.94
2023-05-25T18:47:33.900Z,98323.34
2023-05-25T18:50:01.062Z,98319.00
2023-05-25T18:52:27.706Z,98327.34
2023-05-25T18:54:54.329Z,98320.91
2023-05-25T18:57:21.280Z,98332.19
2023-05-25T18:59:47.940Z,98335.22
2023-05-25T19:02:14.582Z,98340.03
2023-05-25T19:04:41.439Z,98339.06
2023-05-25T19:07:08.042Z,98343.00
2023-05-25T19:09:34.732Z,98345.75
2023-05-25T19:12:01.438Z,98349.19
2023-05-25T19:14:28.072Z,98356.81
2023-05-25T19:16:54.748Z,98357.50
2023-05-25T19:19:21.558Z,98354.09
2023-05-25T19:21:48.158Z,98358.81
2023-05-25T19:24:14.798Z,98368.63
2023-05-25T19:26:41.795Z,98356.81
2023-05-25T19:29:08.354Z,98362.25
2023-05-25T19:31:35.067Z,98364.41
2023-05-25T19:34:01.726Z,98360.09
2023-05-25T19:36:28.614Z,98359.53
2023-05-25T19:38:55.400Z,98359.38
2023-05-25T19:41:22.083Z,98360.28
2023-05-25T19:43:48.710Z,98361.72
2023-05-25T19:46:15.455Z,98361.34
2023-05-25T19:48:42.637Z,98358.25
2023-05-25T19:51:09.262Z,98356.13
2023-05-25T19:53:35.906Z,98356.44
2023-05-25T19:56:03.511Z,98365.94
2023-05-25T19:58:30.142Z,98353.41
2023-05-25T20:00:57.047Z,98359.13
2023-05-25T20:03:23.850Z,98363.81
2023-05-25T20:05:50.614Z,98366.72
2023-05-25T20:08:17.318Z,98359.22
2023-05-25T20:10:45.185Z,98347.66
2023-05-25T20:13:12.661Z,98353.25
2023-05-25T20:15:39.353Z,98358.47
2023-05-25T20:18:06.097Z,98358.94
2023-05-25T20:20:32.833Z,98361.69
2023-05-25T20:22:59.735Z,98365.34
2023-05-25T20:25:26.578Z,98356.53
2023-05-25T20:27:53.302Z,98361.59
2023-05-25T20:30:19.973Z,98353.88
2023-05-25T20:32:46.668Z,98358.03
2023-05-25T20:35:13.821Z,98355.75
2023-05-25T20:37:41.876Z,98360.88
2023-05-25T20:40:09.247Z,98364.06
2023-05-25T20:42:36.178Z,98355.25
2023-05-25T20:45:02.828Z,98364.31
2023-05-25T20:47:29.505Z,98366.00
2023-05-25T20:49:56.222Z,98362.25
2023-05-25T20:52:23.737Z,98366.09
2023-05-25T20:54:50.570Z,98364.69
2023-05-25T20:57:17.205Z,98366.72
2023-05-25T20:59:43.886Z,98370.97
2023-05-25T21:02:10.608Z,98363.44
2023-05-25T21:04:37.258Z,98375.41
2023-05-25T21:07:04.173Z,98375.47
2023-05-25T21:09:31.053Z,98358.16
2023-05-25T21:11:57.722Z,98362.91
2023-05-25T21:14:24.342Z,98355.72
2023-05-25T21:16:51.403Z,98354.47
2023-05-25T21:19:18.068Z,98353.03
2023-05-25T21:21:44.735Z,98353.84
2023-05-25T21:24:11.371Z,98349.31
2023-05-25T21:26:38.035Z,98351.00
2023-05-25T21:29:04.634Z,98345.97
2023-05-25T21:31:31.377Z,98354.06
2023-05-25T21:33:59.934Z,98342.19
2023-05-25T21:36:26.807Z,98338.13
2023-05-25T21:38:53.417Z,98342.22
2023-05-25T21:41:20.307Z,98332.41
2023-05-25T21:43:46.943Z,98333.09
2023-05-25T21:46:13.537Z,98332.88
2023-05-25T21:48:40.213Z,98338.31
2023-05-25T21:51:06.810Z,98339.63
2023-05-25T21:53:33.683Z,98340.31
2023-05-25T21:56:00.286Z,98334.44
2023-05-25T21:58:26.892Z,98340.72
2023-05-25T22:00:53.521Z,98341.16
2023-05-25T22:03:20.261Z,98340.09
2023-05-25T22:05:47.010Z,98349.56
2023-05-25T22:08:13.821Z,98346.22
2023-05-25T22:10:40.435Z,98351.47
2023-05-25T22:13:07.253Z,98351.50
2023-05-25T22:15:34.404Z,98343.31
2023-05-25T22:18:01.628Z,98344.16
2023-05-25T22:20:28.438Z,98342.94
2023-05-25T22:22:55.139Z,98340.66
2023-05-25T22:25:21.791Z,98345.06
2023-05-25T22:27:48.476Z,98336.97
2023-05-25T22:30:15.324Z,98340.31
2023-05-25T22:32:42.261Z,98343.91
2023-05-25T22:35:08.949Z,98337.44
2023-05-25T22:37:35.553Z,98341.63
2023-05-25T22:40:02.188Z,98345.81
2023-05-25T22:42:28.794Z,98348.53
2023-05-25T22:44:55.569Z,98346.41
2023-05-25T22:47:22.219Z,98334.97
2023-05-25T22:49:48.887Z,98344.81
2023-05-25T22:52:15.610Z,98339.56
2023-05-25T22:54:42.443Z,98338.53
2023-05-25T22:57:10.082Z,98338.13
2023-05-25T22:59:36.930Z,98336.03
2023-05-25T23:02:04.042Z,98333.94
2023-05-25T23:04:30.932Z,98335.59
2023-05-25T23:06:57.564Z,98324.31
2023-05-25T23:09:24.129Z,98329.97
2023-05-25T23:11:50.894Z,98333.53
2023-05-25T23:14:17.558Z,98326.84
2023-05-25T23:16:44.626Z,98326.88
2023-05-25T23:19:11.414Z,98332.28
2023-05-25T23:21:38.185Z,98332.09
2023-05-25T23:24:05.117Z,98323.09
2023-05-25T23:26:31.698Z,98319.31
2023-05-25T23:28:58.452Z,98314.06
2023-05-25T23:31:25.201Z,98322.22
2023-05-25T23:33:51.856Z,98326.00
2023-05-25T23:36:18.589Z,98323.94
2023-05-25T23:38:46.453Z,98326.00
2023-05-25T23:41:13.401Z,98316.19
2023-05-25T23:43:40.039Z,98318.72
2023-05-25T23:46:07.333Z,98317.88
2023-05-25T23:48:34.028Z,98308.09
2023-05-25T23:51:00.674Z,98321.25
2023-05-25T23:53:27.310Z,98318.53
2023-05-25T23:55:53.917Z,98318.53
2023-05-25T23:58:20.665Z,98320.63
